createdAt,value
2023-07-15T07:23:19.360Z,2.40
2023-07-15T07:26:31.956Z,4.38
2023-07-15T07:29:44.093Z,2.88
2023-07-15T07:32:56.247Z,2.80
2023-07-15T07:36:08.783Z,2.43
2023-07-15T07:39:20.854Z,2.10
2023-07-15T07:42:33.052Z,3.10
2023-07-15T07:45:45.074Z,2.10
2023-07-15T07:48:57.221Z,2.08
2023-07-15T07:52:10.261Z,2.30
2023-07-15T07:55:22.505Z,2.13
2023-07-15T07:58:34.582Z,2.45
2023-07-15T08:01:46.897Z,3.68
2023-07-15T08:04:59.397Z,2.35
2023-07-15T08:08:12.034Z,2.00
2023-07-15T08:11:24.270Z,1.78
2023-07-15T08:14:36.439Z,2.13
2023-07-15T08:17:48.631Z,2.78
2023-07-15T08:21:00.909Z,2.10
2023-07-15T08:24:13.726Z,2.03
2023-07-15T08:27:26.099Z,1.93
2023-07-15T08:30:38.710Z,2.13
2023-07-15T08:33:50.897Z,2.70
2023-07-15T08:37:02.970Z,2.10
2023-07-15T08:40:17.656Z,2.40
2023-07-15T08:43:29.890Z,3.00
2023-07-15T08:46:42.545Z,2.90
2023-07-15T08:49:57.863Z,2.00
2023-07-15T08:53:11.210Z,2.17
2023-07-15T08:56:25.415Z,4.08
2023-07-15T08:59:38.272Z,2.20
2023-07-15T09:02:50.609Z,2.75
2023-07-15T09:06:02.772Z,3.28
2023-07-15T09:09:15.293Z,2.30
2023-07-15T09:12:29.488Z,4.03
2023-07-15T09:15:44.087Z,3.90
2023-07-15T09:18:57.761Z,2.80
2023-07-15T09:22:15.189Z,1.98
2023-07-15T09:25:28.989Z,1.90
2023-07-15T09:28:42.475Z,6.18
2023-07-15T09:31:55.765Z,2.50
2023-07-15T09:35:09.004Z,2.05
2023-07-15T09:38:24.146Z,5.95
2023-07-15T09:41:37.218Z,6.15
2023-07-15T09:44:51.178Z,4.95
2023-07-15T09:48:03.478Z,2.88
2023-07-15T09:51:18.895Z,2.25
2023-07-15T09:57:44.210Z,2.78
2023-07-15T10:01:01.562Z,2.10
2023-07-15T10:04:22.355Z,2.20
2023-07-15T10:07:35.037Z,1.85
2023-07-15T10:10:48.022Z,2.38
2023-07-15T10:14:00.926Z,2.20
2023-07-15T10:17:20.999Z,2.70
2023-07-15T10:20:38.169Z,11.05
2023-07-15T10:23:52.402Z,3.28
2023-07-15T10:27:08.040Z,3.18
2023-07-15T10:30:31.199Z,2.00
2023-07-15T10:33:52.143Z,2.33
2023-07-15T10:37:12.974Z,1.85
2023-07-15T10:40:54.784Z,2.20
2023-07-15T10:44:20.250Z,2.45
2023-07-15T10:47:34.963Z,2.13
2023-07-15T10:50:47.709Z,2.38
2023-07-15T10:53:59.785Z,3.20
2023-07-15T10:57:19.041Z,1.70
2023-07-15T11:00:32.059Z,2.03
2023-07-15T11:03:47.059Z,1.83
2023-07-15T11:07:01.884Z,2.55
2023-07-15T11:10:16.047Z,2.33
2023-07-15T11:13:28.233Z,1.90
2023-07-15T11:16:44.070Z,1.98
2023-07-15T11:19:57.036Z,2.15
2023-07-15T11:23:09.694Z,5.95
2023-07-15T11:26:22.165Z,2.38
2023-07-15T11:29:35.498Z,2.10
2023-07-15T11:32:47.900Z,2.18
2023-07-15T11:36:00.628Z,2.10
2023-07-15T11:42:14.842Z,2.10
2023-07-15T11:45:32.333Z,2.80
2023-07-15T11:48:45.596Z,2.73
2023-07-15T11:52:01.676Z,3.48
2023-07-15T11:58:54.497Z,2.70
2023-07-15T12:02:10.679Z,3.65
2023-07-15T12:08:33.640Z,2.58
2023-07-15T12:11:46.210Z,2.78
2023-07-15T12:14:58.477Z,2.18
2023-07-15T12:18:11.084Z,2.00
2023-07-15T12:21:23.530Z,1.90
2023-07-15T12:24:35.720Z,2.20
2023-07-15T12:27:47.738Z,1.80
2023-07-15T12:30:59.955Z,1.90
2023-07-15T12:34:12.315Z,3.60
2023-07-15T12:37:24.567Z,5.15
2023-07-15T12:40:36.792Z,2.68
2023-07-15T12:43:49.787Z,3.60
2023-07-15T12:47:01.958Z,1.93
2023-07-15T12:50:15.852Z,2.00
2023-07-15T12:53:30.081Z,2.30
2023-07-15T12:56:42.251Z,1.90
2023-07-15T12:59:54.348Z,2.13
2023-07-15T13:03:08.192Z,1.80
2023-07-15T13:06:20.559Z,1.70
2023-07-15T13:09:32.788Z,2.40
2023-07-15T13:12:44.986Z,2.35
2023-07-15T13:15:58.154Z,2.70
2023-07-15T13:19:11.018Z,2.20
2023-07-15T13:22:23.256Z,2.10
2023-07-15T13:25:35.526Z,1.75
2023-07-15T13:28:47.862Z,1.70
2023-07-15T13:32:00.131Z,1.70
2023-07-15T13:35:13.847Z,1.68
2023-07-15T13:38:26.316Z,1.68
2023-07-15T13:41:38.760Z,1.90
2023-07-15T13:44:51.403Z,1.90
2023-07-15T13:48:03.661Z,1.83
2023-07-15T13:51:16.290Z,2.00
2023-07-15T13:54:29.251Z,2.20
2023-07-15T13:57:41.354Z,1.80
2023-07-15T14:00:53.822Z,2.13
2023-07-15T14:04:06.173Z,1.53
2023-07-15T14:07:20.099Z,2.78
2023-07-15T14:10:32.798Z,2.63
2023-07-15T14:13:45.210Z,2.63
2023-07-15T14:16:57.645Z,2.90
2023-07-15T14:20:12.220Z,4.80
2023-07-15T14:23:24.565Z,2.30
2023-07-15T14:26:36.984Z,2.08
2023-07-15T14:29:49.259Z,1.65
2023-07-15T14:33:01.454Z,1.65
2023-07-15T14:36:13.955Z,1.60
2023-07-15T14:39:26.154Z,2.40
2023-07-15T14:42:38.459Z,10.33
2023-07-15T14:45:52.097Z,6.80
2023-07-15T14:49:05.522Z,3.33
2023-07-15T14:52:17.670Z,2.00
2023-07-15T14:55:29.982Z,2.00
2023-07-15T14:58:42.342Z,1.93
2023-07-15T15:01:54.443Z,2.48
2023-07-15T15:05:06.762Z,3.15
2023-07-15T15:08:19.254Z,2.58
2023-07-15T15:11:31.450Z,2.13
2023-07-15T15:14:43.612Z,1.95
2023-07-15T15:17:55.687Z,1.73
2023-07-15T15:21:07.859Z,2.10
2023-07-15T15:24:22.439Z,2.23
2023-07-15T15:27:34.758Z,2.15
2023-07-15T15:30:47.075Z,2.23
2023-07-15T15:33:59.211Z,2.60
2023-07-15T15:37:12.300Z,2.55
2023-07-15T15:40:25.882Z,2.18
2023-07-15T15:43:38.024Z,2.50
2023-07-15T15:46:50.386Z,2.30
2023-07-15T15:50:02.696Z,2.40
2023-07-15T15:53:15.435Z,2.68
2023-07-15T15:56:27.606Z,2.28
2023-07-15T15:59:39.642Z,2.98
2023-07-15T16:02:51.816Z,1.90
2023-07-15T16:06:04.786Z,1.75
2023-07-15T16:09:16.945Z,2.40
2023-07-15T16:12:28.995Z,2.40
2023-07-15T16:15:41.272Z,2.00
2023-07-15T16:18:53.309Z,2.75
2023-07-15T16:22:06.967Z,7.25
2023-07-15T16:25:19.502Z,2.50
2023-07-15T16:28:31.813Z,3.58
2023-07-15T16:31:44.172Z,2.08
2023-07-15T16:34:57.944Z,2.50
2023-07-15T16:38:10.068Z,2.83
2023-07-15T16:41:22.110Z,3.00
2023-07-15T16:44:34.315Z,2.05
2023-07-15T16:47:46.951Z,7.50
2023-07-15T16:50:59.381Z,2.65
2023-07-15T16:54:11.655Z,2.28
2023-07-15T16:57:24.491Z,2.43
2023-07-15T17:00:36.748Z,2.73
2023-07-15T17:03:48.911Z,6.13
2023-07-15T17:07:01.294Z,3.35
2023-07-15T17:10:15.553Z,8.48
2023-07-15T17:13:29.785Z,4.95
2023-07-15T17:16:42.516Z,2.63
2023-07-15T17:19:54.646Z,2.85
2023-07-15T17:23:06.798Z,2.40
2023-07-15T17:26:18.943Z,2.63
2023-07-15T17:29:31.256Z,2.18
2023-07-15T17:32:43.432Z,2.55
2023-07-15T17:35:55.803Z,3.18
2023-07-15T17:39:08.120Z,25.80
2023-07-15T17:42:20.234Z,14.35
2023-07-15T17:45:32.501Z,7.60
2023-07-15T17:48:44.987Z,10.78
2023-07-15T17:51:57.156Z,11.65
2023-07-15T17:55:21.727Z,11.38
2023-07-15T17:58:24.852Z,7.63
2023-07-15T18:01:36.949Z,3.73
2023-07-15T18:04:54.999Z,5.43
2023-07-15T18:08:07.292Z,5.00
2023-07-15T18:11:19.564Z,6.18
2023-07-15T18:14:31.680Z,12.43
2023-07-15T18:17:43.798Z,6.75
2023-07-15T18:20:55.990Z,10.00
2023-07-15T18:24:08.140Z,6.15
2023-07-15T18:27:20.459Z,4.20
2023-07-15T18:30:34.156Z,3.73
2023-07-15T18:33:46.292Z,3.70
2023-07-15T18:36:58.708Z,4.50
2023-07-15T18:40:13.365Z,3.48
2023-07-15T18:43:25.666Z,4.25
2023-07-15T18:46:37.868Z,6.18
2023-07-15T18:49:50.529Z,6.55
2023-07-15T18:53:02.635Z,7.25
2023-07-15T18:56:15.165Z,21.53
2023-07-15T18:59:27.390Z,9.20
2023-07-15T19:02:39.995Z,11.83
2023-07-15T19:05:52.445Z,16.55
2023-07-15T19:09:05.054Z,20.00
2023-07-15T19:12:17.947Z,10.78
2023-07-15T19:15:30.558Z,9.28
2023-07-15T19:18:42.639Z,6.10
2023-07-15T19:21:55.078Z,5.38
2023-07-15T19:25:08.557Z,6.73
2023-07-15T19:28:20.814Z,5.48
2023-07-15T19:31:32.988Z,5.63
2023-07-15T19:34:46.460Z,7.28
2023-07-15T19:37:58.514Z,6.78
2023-07-15T19:41:12.798Z,13.85
2023-07-15T19:44:25.124Z,6.95
2023-07-15T19:47:37.405Z,8.83
2023-07-15T19:50:49.635Z,5.73
2023-07-15T19:54:01.905Z,6.75
2023-07-15T19:57:14.630Z,6.48
2023-07-15T20:00:27.041Z,6.98
2023-07-15T20:03:39.339Z,7.05
2023-07-15T20:06:53.649Z,7.55
2023-07-15T20:10:05.763Z,8.38
2023-07-15T20:13:18.113Z,6.70
2023-07-15T20:16:30.654Z,6.65
2023-07-15T20:19:42.932Z,6.83
2023-07-15T20:22:55.170Z,6.25
2023-07-15T20:26:07.558Z,6.63
2023-07-15T20:29:19.919Z,6.98
2023-07-15T20:32:32.190Z,10.70
2023-07-15T20:35:46.257Z,7.18
2023-07-15T20:38:58.329Z,6.85
2023-07-15T20:42:13.771Z,6.65
2023-07-15T20:45:26.274Z,6.33
2023-07-15T20:48:38.684Z,7.15
2023-07-15T20:51:50.858Z,7.70
2023-07-15T20:55:03.091Z,7.40
2023-07-15T20:58:15.569Z,10.45
2023-07-15T21:01:27.870Z,23.23
2023-07-15T21:04:40.495Z,9.63
2023-07-15T21:07:52.877Z,7.70
2023-07-15T21:11:06.916Z,6.53
2023-07-15T21:14:19.511Z,6.55
2023-07-15T21:17:32.104Z,7.43
2023-07-15T21:20:44.437Z,6.83
2023-07-15T21:23:58.246Z,7.55
2023-07-15T21:27:11.703Z,7.45
2023-07-15T21:30:24.096Z,6.35
2023-07-15T21:33:36.572Z,6.90
2023-07-15T21:36:48.715Z,6.73
2023-07-15T21:40:00.903Z,7.10
2023-07-15T21:43:13.113Z,7.43
2023-07-15T21:46:26.921Z,7.18
2023-07-15T21:49:39.060Z,6.98
2023-07-15T21:52:51.507Z,7.55
2023-07-15T21:56:04.204Z,7.48
2023-07-15T21:59:16.348Z,7.65
2023-07-15T22:02:28.528Z,6.90
2023-07-15T22:05:40.945Z,6.70
2023-07-15T22:08:53.170Z,6.60
2023-07-15T22:12:05.465Z,6.83
2023-07-15T22:15:18.972Z,7.18
2023-07-15T22:21:45.296Z,7.10
2023-07-15T22:24:57.943Z,7.03
2023-07-15T22:28:10.934Z,7.18
2023-07-15T22:31:23.114Z,7.40
2023-07-15T22:34:36.938Z,7.05
2023-07-15T22:37:49.068Z,6.73
2023-07-15T22:41:02.404Z,6.75
2023-07-15T22:44:14.473Z,7.15
2023-07-15T22:47:26.568Z,6.60
2023-07-15T22:50:38.603Z,6.95
2023-07-15T22:53:50.887Z,7.00
2023-07-15T22:57:03.369Z,7.05
2023-07-15T23:00:18.975Z,7.28
2023-07-15T23:03:31.326Z,6.70
2023-07-15T23:06:43.532Z,6.80
2023-07-15T23:09:55.758Z,7.10
2023-07-15T23:13:07.961Z,7.00
2023-07-15T23:16:20.223Z,9.83
2023-07-15T23:19:32.751Z,8.10
2023-07-15T23:22:45.029Z,7.80
2023-07-15T23:25:57.490Z,7.65
2023-07-15T23:29:09.783Z,7.73
2023-07-15T23:32:24.326Z,7.58
2023-07-15T23:35:37.532Z,7.48
2023-07-15T23:38:50.187Z,8.88
2023-07-15T23:42:02.270Z,7.63
2023-07-15T23:45:16.868Z,8.65
2023-07-15T23:48:29.084Z,8.00
2023-07-15T23:51:41.376Z,8.48
2023-07-15T23:54:53.589Z,7.30
2023-07-15T23:58:06.134Z,7.70
